Time;durP1;ratioP1;P1;durP2;ratioP2;P2;SDS_P1;SDS_P2;PMS_P1;PMS_P2;Temp;Humidity;BMP_temperature;BMP_pressure;BME280_temperature;BME280_humidity;BME280_pressure;Samples;Min_cycle;Max_cycle;Signal;HPM_P1;HPM_P2
2023/01/01 00:01:06;;;;;;;22.03;13.90;;;12.50;99.90;;;;;;5057575;28;20362;-85
2023/01/01 00:03:32;;;;;;;28.17;15.00;;;12.50;99.90;;;;;;5058579;28;20102;-85
2023/01/01 00:05:58;;;;;;;21.70;12.33;;;12.50;99.90;;;;;;5057660;28;20643;-84
2023/01/01 00:08:23;;;;;;;23.17;11.90;;;12.60;99.90;;;;;;5057815;28;20052;-85
2023/01/01 00:10:49;;;;;;;19.13;10.50;;;12.60;99.90;;;;;;5042116;28;20067;-84
2023/01/01 00:13:15;;;;;;;22.03;10.27;;;12.60;99.90;;;;;;5042114;28;20041;-85
2023/01/01 00:15:40;;;;;;;21.60;11.23;;;12.60;99.90;;;;;;5057741;28;20097;-85
2023/01/01 00:18:06;;;;;;;23.27;10.73;;;12.60;99.90;;;;;;5057663;28;20051;-84
2023/01/01 00:20:32;;;;;;;21.80;9.30;;;12.60;99.90;;;;;;5057677;28;20048;-85
2023/01/01 00:22:57;;;;;;;18.97;9.70;;;12.60;99.90;;;;;;5024245;28;20048;-84
2023/01/01 00:25:24;;;;;;;26.40;9.90;;;12.60;99.90;;;;;;5024521;28;20055;-84
2023/01/01 00:27:49;;;;;;;19.43;9.47;;;12.60;99.90;;;;;;5075218;28;20064;-83
2023/01/01 00:30:15;;;;;;;18.23;8.80;;;12.60;99.90;;;;;;5057748;28;20596;-84
2023/01/01 00:32:41;;;;;;;19.07;9.10;;;12.60;99.90;;;;;;5057425;28;20122;-84
2023/01/01 00:35:07;;;;;;;18.27;8.67;;;12.60;99.90;;;;;;5075583;28;20045;-84
2023/01/01 00:37:33;;;;;;;17.80;8.70;;;12.60;99.90;;;;;;5040741;28;20425;-84
2023/01/01 00:39:59;;;;;;;20.13;10.90;;;12.70;99.90;;;;;;5057620;28;20295;-84
2023/01/01 00:42:24;;;;;;;18.53;10.47;;;12.70;99.90;;;;;;5040848;28;20121;-84
2023/01/01 00:44:50;;;;;;;24.60;12.80;;;12.70;99.90;;;;;;5040751;28;20048;-84
2023/01/01 00:47:16;;;;;;;24.53;14.70;;;12.60;99.90;;;;;;5058081;28;20056;-80
2023/01/01 00:49:41;;;;;;;25.40;16.20;;;12.60;99.90;;;;;;5075076;28;20084;-83
2023/01/01 00:52:07;;;;;;;28.37;18.47;;;12.60;99.90;;;;;;5074725;28;20040;-82
2023/01/01 00:54:33;;;;;;;35.50;21.33;;;12.50;99.90;;;;;;5074665;28;20080;-82
2023/01/01 00:56:59;;;;;;;35.97;24.67;;;12.50;99.90;;;;;;5056491;28;20063;-84
2023/01/01 00:59:24;;;;;;;34.47;23.97;;;12.50;99.90;;;;;;5056812;28;20055;-84
2023/01/01 01:01:50;;;;;;;37.07;24.73;;;12.40;99.90;;;;;;5053110;28;20057;-84
2023/01/01 01:04:16;;;;;;;39.33;26.50;;;12.40;99.90;;;;;;5054436;28;20136;-83
2023/01/01 01:06:42;;;;;;;37.17;27.07;;;12.40;99.90;;;;;;5053864;28;20044;-83
2023/01/01 01:09:08;;;;;;;35.60;27.40;;;12.50;99.90;;;;;;5053481;28;20495;-84
2023/01/01 01:11:33;;;;;;;39.10;26.57;;;12.50;99.90;;;;;;5053707;28;20370;-83
2023/01/01 01:13:59;;;;;;;41.33;29.57;;;12.50;99.90;;;;;;5053194;28;20337;-84
2023/01/01 01:16:31;;;;;;;40.20;28.37;;;12.50;99.90;;;;;;5054184;28;20080;-83
2023/01/01 01:19:00;;;;;;;42.57;32.70;;;12.50;99.90;;;;;;5053352;28;20397;-85
2023/01/01 01:21:27;;;;;;;45.23;32.77;;;12.40;99.90;;;;;;5053320;28;20648;-82
2023/01/01 01:23:55;;;;;;;48.57;36.90;;;12.40;99.90;;;;;;5054173;28;20287;-81
2023/01/01 01:26:23;;;;;;;47.50;38.17;;;12.40;99.90;;;;;;5053435;28;20302;-83
2023/01/01 01:28:51;;;;;;;47.97;35.93;;;12.30;99.90;;;;;;5053145;28;20287;-83
2023/01/01 01:31:18;;;;;;;46.57;37.67;;;12.30;99.90;;;;;;5053085;28;20292;-83
2023/01/01 01:33:45;;;;;;;44.83;36.80;;;12.20;99.90;;;;;;5052713;28;20302;-84
2023/01/01 01:36:11;;;;;;;47.40;38.30;;;12.10;99.90;;;;;;5054250;28;20361;-84
2023/01/01 01:38:37;;;;;;;46.30;37.37;;;12.10;99.90;;;;;;5052658;28;20279;-84
2023/01/01 01:41:04;;;;;;;53.37;38.73;;;12.10;99.90;;;;;;5052654;28;20291;-84
2023/01/01 01:43:32;;;;;;;56.10;41.80;;;12.00;99.90;;;;;;5053919;28;20078;-84
2023/01/01 01:46:04;;;;;;;53.70;41.20;;;12.00;99.90;;;;;;5054113;28;20330;-85
2023/01/01 01:48:39;;;;;;;56.23;43.40;;;12.00;99.90;;;;;;5037071;28;20600;-85
2023/01/01 01:51:06;;;;;;;53.70;43.43;;;11.90;99.90;;;;;;5053804;28;20755;-85
2023/01/01 01:53:39;;;;;;;52.40;42.23;;;11.90;99.90;;;;;;5052714;28;20829;-85
2023/01/01 01:56:10;;;;;;;52.70;42.70;;;11.90;99.90;;;;;;5054249;28;20620;-85
2023/01/01 01:58:36;;;;;;;51.83;41.73;;;11.90;99.90;;;;;;5054254;28;20283;-85
2023/01/01 02:01:02;;;;;;;51.40;40.07;;;11.90;99.90;;;;;;5054880;28;20288;-85
2023/01/01 02:03:49;;;;;;;51.67;40.40;;;11.90;99.90;;;;;;5056507;28;20057;-85
2023/01/01 02:06:16;;;;;;;54.37;39.90;;;11.90;99.90;;;;;;5056432;28;20775;-85
2023/01/01 02:08:42;;;;;;;52.83;40.03;;;11.90;99.90;;;;;;5073561;28;20283;-85
2023/01/01 02:11:08;;;;;;;49.97;42.27;;;11.90;99.90;;;;;;5039227;28;20386;-86
2023/01/01 02:13:34;;;;;;;48.57;40.77;;;11.90;99.90;;;;;;5073819;28;20045;-85
2023/01/01 02:16:27;;;;;;;49.33;36.90;;;11.90;99.90;;;;;;5055781;28;20090;-85
2023/01/01 02:19:11;;;;;;;51.00;38.87;;;11.90;99.90;;;;;;5060090;28;20408;-86
2023/01/01 02:22:01;;;;;;;46.73;37.83;;;11.90;99.90;;;;;;5039597;28;20310;-85
2023/01/01 02:24:41;;;;;;;50.37;38.67;;;11.90;99.90;;;;;;5073335;28;20290;-85
2023/01/01 02:27:07;;;;;;;48.57;37.20;;;11.90;99.90;;;;;;5056432;28;20767;-85
2023/01/01 02:29:41;;;;;;;51.13;39.43;;;11.90;99.90;;;;;;5073373;28;20344;-84
2023/01/01 02:32:17;;;;;;;52.63;39.87;;;12.00;99.90;;;;;;5075312;28;20053;-85
2023/01/01 02:35:33;;;;;;;57.53;41.07;;;11.90;99.90;;;;;;5078299;28;20650;-84
2023/01/01 02:37:53;;;;;;;46.40;36.38;;;11.90;99.90;;;;;;5077152;28;20294;-83
2023/01/01 02:40:22;;;;;;;55.50;39.70;;;11.90;99.90;;;;;;5060406;28;20040;-83
2023/01/01 02:42:49;;;;;;;50.70;37.73;;;11.90;99.90;;;;;;5077189;28;20290;-84
2023/01/01 02:45:15;;;;;;;45.90;35.63;;;11.90;99.90;;;;;;5077250;28;20361;-83
2023/01/01 02:47:41;;;;;;;53.60;38.80;;;11.70;99.90;;;;;;5078088;28;20333;-83
2023/01/01 02:50:13;;;;;;;48.67;37.93;;;11.70;99.90;;;;;;5077410;28;20045;-83
2023/01/01 02:52:51;;;;;;;56.07;41.83;;;11.70;99.90;;;;;;5077412;28;20045;-82
2023/01/01 02:55:49;;;;;;;54.20;40.87;;;11.70;99.90;;;;;;5076971;28;20352;-83
2023/01/01 03:01:46;;;;;;;48.73;33.70;;;11.60;99.90;;;;;;5076712;28;20307;-83
2023/01/01 03:04:37;;;;;;;40.57;29.23;;;11.60;99.90;;;;;;5059478;28;20291;-82
2023/01/01 03:07:11;;;;;;;29.83;20.90;;;11.60;99.90;;;;;;5077437;28;20279;-81
2023/01/01 03:10:19;;;;;;;32.00;17.90;;;11.50;99.90;;;;;;5077616;28;20279;-81
2023/01/01 03:13:13;;;;;;;24.07;14.33;;;11.60;99.90;;;;;;4997293;28;20287;-81
2023/01/01 03:15:59;;;;;;;25.53;13.27;;;11.60;99.90;;;;;;5077573;28;20650;-81
2023/01/01 03:18:40;;;;;;;30.57;13.37;;;11.50;99.90;;;;;;5059097;28;20283;-81
2023/01/01 03:21:08;;;;;;;30.73;12.87;;;11.50;99.90;;;;;;5076644;28;20326;-81
2023/01/01 03:23:37;;;;;;;24.67;11.17;;;11.50;99.90;;;;;;5058567;28;20298;-81
2023/01/01 03:26:09;;;;;;;26.40;11.57;;;11.50;99.90;;;;;;5076467;28;20275;-80
2023/01/01 03:28:42;;;;;;;26.20;12.07;;;11.50;99.90;;;;;;5076421;28;20283;-82
2023/01/01 03:31:09;;;;;;;20.47;10.73;;;11.50;99.90;;;;;;5076391;28;20279;-82
2023/01/01 03:33:43;;;;;;;25.23;11.90;;;11.40;99.90;;;;;;5076595;28;20329;-82
2023/01/01 03:36:30;;;;;;;26.10;13.03;;;11.40;99.90;;;;;;5076835;28;20331;-82
2023/01/01 03:39:16;;;;;;;31.60;15.07;;;11.40;99.90;;;;;;5076283;28;20283;-82
2023/01/01 03:42:10;;;;;;;25.87;14.17;;;11.30;99.90;;;;;;5076199;28;20347;-82
2023/01/01 03:45:00;;;;;;;34.33;14.33;;;11.30;99.90;;;;;;5047460;28;20295;-81
2023/01/01 03:47:27;;;;;;;27.20;12.07;;;11.30;99.90;;;;;;5076345;28;20679;-82
2023/01/01 03:49:54;;;;;;;25.00;12.20;;;11.30;99.90;;;;;;5075990;28;20287;-81
2023/01/01 03:52:31;;;;;;;27.17;10.63;;;11.20;99.90;;;;;;5076411;28;20283;-82
2023/01/01 03:55:00;;;;;;;23.27;10.10;;;11.20;99.90;;;;;;5076742;28;20366;-82
2023/01/01 03:57:39;;;;;;;16.93;8.10;;;11.20;99.90;;;;;;5075735;28;20370;-82
2023/01/01 04:00:07;;;;;;;23.17;7.60;;;11.20;99.90;;;;;;5059108;28;20297;-83
2023/01/01 04:02:43;;;;;;;22.03;7.23;;;11.20;99.90;;;;;;5058331;28;20681;-82
2023/01/01 04:05:09;;;;;;;17.87;6.00;;;11.20;99.90;;;;;;5076007;28;20735;-82
2023/01/01 04:07:36;;;;;;;16.00;4.47;;;11.30;99.90;;;;;;5076476;28;20351;-83
2023/01/01 04:10:15;;;;;;;15.03;5.17;;;11.30;99.90;;;;;;5058339;28;20289;-82
2023/01/01 04:12:54;;;;;;;15.27;4.03;;;11.40;99.90;;;;;;5075643;28;20353;-82
2023/01/01 04:15:25;;;;;;;21.37;4.90;;;11.50;99.90;;;;;;5058761;28;20286;-82
2023/01/01 04:17:52;;;;;;;21.00;4.80;;;11.50;99.90;;;;;;5058671;28;20615;-82
2023/01/01 04:20:18;;;;;;;23.70;5.40;;;11.50;99.90;;;;;;5076013;28;20290;-82
2023/01/01 04:22:44;;;;;;;22.53;5.50;;;11.50;99.90;;;;;;5057551;28;20291;-82
2023/01/01 04:25:10;;;;;;;18.87;5.10;;;11.50;99.90;;;;;;5075418;28;20290;-82
2023/01/01 04:27:37;;;;;;;23.23;4.90;;;11.50;99.90;;;;;;5075347;28;20102;-82
2023/01/01 04:30:05;;;;;;;22.03;5.20;;;11.50;99.90;;;;;;5075812;28;20294;-82
2023/01/01 04:32:31;;;;;;;21.67;4.93;;;11.50;99.90;;;;;;5075501;28;20728;-83
2023/01/01 04:34:56;;;;;;;26.97;6.23;;;11.50;99.90;;;;;;5075173;28;20371;-83
2023/01/01 04:37:22;;;;;;;24.93;6.30;;;11.50;99.90;;;;;;5075149;28;20472;-83
2023/01/01 04:39:48;;;;;;;20.40;4.73;;;11.50;99.90;;;;;;5041719;28;20072;-84
2023/01/01 04:42:13;;;;;;;25.27;5.40;;;11.40;99.90;;;;;;5074946;28;20047;-84
2023/01/01 04:44:39;;;;;;;19.70;5.60;;;11.40;99.90;;;;;;5058154;28;20053;-84
2023/01/01 04:47:05;;;;;;;19.27;4.73;;;11.40;99.90;;;;;;5074850;28;20067;-84
2023/01/01 04:49:31;;;;;;;26.33;5.17;;;11.40;99.90;;;;;;5074487;28;20454;-84
2023/01/01 04:51:56;;;;;;;15.90;4.77;;;11.50;99.90;;;;;;5075357;28;20283;-84
2023/01/01 04:54:22;;;;;;;20.27;5.77;;;11.50;99.90;;;;;;5057020;28;20131;-84
2023/01/01 04:56:48;;;;;;;17.77;4.80;;;11.40;99.90;;;;;;5074747;28;20049;-84
2023/01/01 04:59:13;;;;;;;20.20;4.63;;;11.40;99.90;;;;;;5057908;28;20040;-85
2023/01/01 05:01:39;;;;;;;22.03;5.10;;;11.40;99.90;;;;;;5074043;28;20056;-85
2023/01/01 05:04:05;;;;;;;16.43;3.67;;;11.40;99.90;;;;;;5075764;28;20060;-85
2023/01/01 05:06:31;;;;;;;16.17;3.93;;;11.40;99.90;;;;;;5074547;28;20496;-84
2023/01/01 05:08:58;;;;;;;19.23;4.97;;;11.30;99.90;;;;;;5075033;28;20049;-84
2023/01/01 05:11:27;;;;;;;14.40;3.73;;;11.30;99.90;;;;;;5056684;28;20060;-83
2023/01/01 05:13:55;;;;;;;16.43;4.17;;;11.30;99.90;;;;;;5074429;28;20364;-84
2023/01/01 05:16:23;;;;;;;15.13;3.60;;;11.30;99.90;;;;;;5074302;28;20310;-83
2023/01/01 05:18:49;;;;;;;18.33;3.67;;;11.30;99.90;;;;;;5056892;28;20318;-84
2023/01/01 05:21:20;;;;;;;12.33;2.80;;;11.30;99.90;;;;;;5074281;28;20372;-85
2023/01/01 05:23:46;;;;;;;15.77;4.03;;;11.30;99.90;;;;;;5056579;28;20052;-85
2023/01/01 05:26:18;;;;;;;13.40;3.27;;;11.30;99.90;;;;;;5057302;28;20612;-83
2023/01/01 05:28:44;;;;;;;12.50;2.87;;;11.30;99.90;;;;;;5074061;28;20279;-84
2023/01/01 05:31:13;;;;;;;20.00;3.37;;;11.30;99.90;;;;;;5073997;28;20278;-83
2023/01/01 05:33:39;;;;;;;15.40;3.40;;;11.30;99.90;;;;;;5074009;28;20271;-84
2023/01/01 05:36:08;;;;;;;13.17;2.53;;;11.30;99.90;;;;;;5073969;28;20275;-84
2023/01/01 05:38:34;;;;;;;16.67;3.17;;;11.30;99.90;;;;;;5073875;28;20286;-85
2023/01/01 05:41:07;;;;;;;17.67;3.10;;;11.30;99.90;;;;;;5074098;28;20301;-84
2023/01/01 05:43:33;;;;;;;14.83;3.23;;;11.20;99.90;;;;;;5074337;28;20298;-83
2023/01/01 05:46:00;;;;;;;15.07;3.00;;;11.20;99.90;;;;;;5074533;28;20283;-83
2023/01/01 05:48:26;;;;;;;12.97;2.87;;;11.20;99.90;;;;;;5074433;28;20658;-84
2023/01/01 05:50:52;;;;;;;11.40;2.73;;;11.20;99.90;;;;;;5073987;28;20278;-84
2023/01/01 05:53:18;;;;;;;12.43;2.43;;;11.20;99.90;;;;;;5039400;28;20511;-83
2023/01/01 05:55:43;;;;;;;12.33;2.73;;;11.10;99.90;;;;;;5055846;28;20045;-83
2023/01/01 05:58:09;;;;;;;14.97;3.10;;;11.10;99.90;;;;;;5073686;28;20392;-83
2023/01/01 06:00:35;;;;;;;16.80;2.70;;;11.10;99.90;;;;;;5073576;28;20044;-83
2023/01/01 06:03:00;;;;;;;13.47;3.20;;;11.00;99.90;;;;;;5055695;28;20059;-83
2023/01/01 06:05:26;;;;;;;10.07;2.60;;;11.00;99.90;;;;;;5055746;28;20512;-83
2023/01/01 06:07:52;;;;;;;14.03;3.37;;;10.90;99.90;;;;;;5073035;28;20056;-84
2023/01/01 06:10:17;;;;;;;12.60;2.73;;;10.90;99.90;;;;;;5074305;28;20044;-83
2023/01/01 06:12:43;;;;;;;13.07;3.07;;;10.90;99.90;;;;;;5073438;28;20040;-83
2023/01/01 06:15:09;;;;;;;10.30;2.63;;;10.90;99.90;;;;;;5073424;28;20427;-83
2023/01/01 06:17:34;;;;;;;19.83;3.10;;;10.80;99.90;;;;;;5073435;28;20049;-83
2023/01/01 06:20:00;;;;;;;15.67;2.43;;;10.80;99.90;;;;;;5055771;28;20045;-83
2023/01/01 06:22:26;;;;;;;13.10;2.50;;;10.80;99.90;;;;;;5073029;28;20056;-83
2023/01/01 06:24:51;;;;;;;16.60;2.60;;;10.80;99.90;;;;;;5023536;28;20083;-83
2023/01/01 06:27:17;;;;;;;15.73;3.57;;;10.80;99.90;;;;;;5056057;28;20048;-83
2023/01/01 06:29:43;;;;;;;14.60;3.00;;;10.80;99.90;;;;;;5055411;28;20119;-83
2023/01/01 06:32:08;;;;;;;14.60;3.37;;;10.80;99.90;;;;;;5074111;28;20041;-84
2023/01/01 06:34:34;;;;;;;15.07;2.40;;;10.80;99.90;;;;;;5073879;28;20353;-83
2023/01/01 06:37:00;;;;;;;13.30;2.97;;;10.80;99.90;;;;;;5072941;28;20048;-84
2023/01/01 06:39:25;;;;;;;18.47;2.53;;;10.70;99.90;;;;;;5073179;28;20052;-84
2023/01/01 06:41:51;;;;;;;13.60;2.83;;;10.80;99.90;;;;;;5056162;28;20041;-84
2023/01/01 06:44:17;;;;;;;17.27;2.97;;;10.70;99.90;;;;;;5055598;28;20452;-84
2023/01/01 06:46:42;;;;;;;16.23;2.33;;;10.70;99.90;;;;;;5073068;28;20048;-84
2023/01/01 06:49:12;;;;;;;18.73;2.70;;;10.70;99.90;;;;;;5055745;28;20127;-84
2023/01/01 06:51:40;;;;;;;18.87;3.23;;;10.70;99.90;;;;;;5055125;28;20392;-84
2023/01/01 06:54:07;;;;;;;28.97;4.53;;;10.70;99.90;;;;;;5073820;28;20298;-83
2023/01/01 06:56:33;;;;;;;15.27;3.37;;;10.70;99.90;;;;;;5038751;28;20774;-84
2023/01/01 06:59:00;;;;;;;18.07;3.23;;;10.70;99.90;;;;;;5073250;28;20303;-84
2023/01/01 07:01:29;;;;;;;17.63;3.77;;;10.60;99.90;;;;;;5055342;28;20298;-84
2023/01/01 07:04:09;;;;;;;16.90;4.10;;;10.70;99.90;;;;;;5073511;28;20429;-84
2023/01/01 07:06:35;;;;;;;16.43;2.97;;;10.70;99.90;;;;;;5073525;28;20673;-84
2023/01/01 07:09:01;;;;;;;18.77;3.70;;;10.60;99.90;;;;;;5073036;28;20373;-84
2023/01/01 07:11:27;;;;;;;22.57;4.43;;;10.60;99.90;;;;;;5055465;28;20782;-84
2023/01/01 07:13:53;;;;;;;20.27;3.53;;;10.60;99.90;;;;;;5072911;28;20051;-84
2023/01/01 07:16:19;;;;;;;20.13;3.60;;;10.60;99.90;;;;;;5055211;28;20778;-84
2023/01/01 07:18:47;;;;;;;20.50;3.87;;;10.60;99.90;;;;;;5074118;28;20630;-84
2023/01/01 07:21:37;;;;;;;26.57;4.80;;;10.60;99.90;;;;;;5058940;28;20282;-84
2023/01/01 07:24:04;;;;;;;30.90;4.77;;;10.60;99.90;;;;;;5059136;28;20287;-84
2023/01/01 07:26:31;;;;;;;22.03;3.70;;;10.60;99.90;;;;;;5058710;28;20326;-84
2023/01/01 07:28:58;;;;;;;25.17;4.13;;;10.60;99.90;;;;;;5042130;28;20334;-84
2023/01/01 07:31:23;;;;;;;28.67;5.17;;;10.50;99.90;;;;;;5059000;28;20836;-84
2023/01/01 07:33:49;;;;;;;25.53;4.97;;;10.50;99.90;;;;;;5058977;28;20295;-84
2023/01/01 07:36:15;;;;;;;23.80;4.23;;;10.50;99.90;;;;;;5058502;28;20378;-84
2023/01/01 07:38:41;;;;;;;25.50;5.00;;;10.50;99.90;;;;;;5059299;28;20140;-85
2023/01/01 07:41:07;;;;;;;26.33;5.07;;;10.50;99.90;;;;;;5058318;28;20052;-84
2023/01/01 07:43:32;;;;;;;27.77;5.93;;;10.50;99.90;;;;;;5076085;28;20036;-83
2023/01/01 07:45:58;;;;;;;25.40;4.00;;;10.50;99.90;;;;;;5042289;28;20318;-84
2023/01/01 07:48:24;;;;;;;26.83;4.60;;;10.50;99.90;;;;;;5075990;28;20142;-84
2023/01/01 07:50:50;;;;;;;22.90;4.87;;;10.50;99.90;;;;;;5075950;28;20283;-84
2023/01/01 07:53:16;;;;;;;25.83;5.43;;;10.50;99.90;;;;;;5058307;28;20052;-84
2023/01/01 07:55:42;;;;;;;28.03;5.37;;;10.50;99.90;;;;;;5075805;28;20473;-84
2023/01/01 07:58:10;;;;;;;34.03;6.33;;;10.50;99.90;;;;;;5042442;28;20600;-84
2023/01/01 08:00:35;;;;;;;19.83;4.13;;;10.50;99.90;;;;;;5058406;28;20295;-85
2023/01/01 08:03:01;;;;;;;26.37;4.60;;;10.40;99.90;;;;;;5054704;28;20793;-84
2023/01/01 08:05:27;;;;;;;26.20;5.40;;;10.40;99.90;;;;;;5055875;28;20053;-85
2023/01/01 08:07:53;;;;;;;28.40;4.80;;;10.40;99.90;;;;;;5055676;28;20536;-85
2023/01/01 08:10:19;;;;;;;25.07;4.37;;;10.40;99.90;;;;;;5055680;28;20084;-85
2023/01/01 08:12:45;;;;;;;22.67;4.60;;;10.40;99.90;;;;;;5055611;28;20311;-85
2023/01/01 08:15:11;;;;;;;24.77;4.80;;;10.40;99.90;;;;;;5055589;28;20049;-86
2023/01/01 08:17:38;;;;;;;32.70;5.57;;;10.40;99.90;;;;;;5054358;28;20286;-85
2023/01/01 08:20:05;;;;;;;24.17;4.03;;;10.40;99.90;;;;;;5054473;28;20287;-85
2023/01/01 08:22:31;;;;;;;28.80;5.10;;;10.40;99.90;;;;;;5055326;28;20795;-86
2023/01/01 08:24:57;;;;;;;23.57;5.27;;;10.40;99.90;;;;;;5037809;28;20330;-85
2023/01/01 08:27:22;;;;;;;23.60;5.70;;;10.40;99.90;;;;;;5055164;28;20412;-85
2023/01/01 08:29:48;;;;;;;31.10;5.20;;;10.40;99.90;;;;;;5053834;28;20053;-85
2023/01/01 08:32:14;;;;;;;28.60;5.27;;;10.40;99.90;;;;;;5037914;28;20103;-85
2023/01/01 08:34:40;;;;;;;30.33;5.47;;;10.50;99.90;;;;;;5053974;28;20045;-85
2023/01/01 08:37:10;;;;;;;29.17;5.80;;;10.40;99.90;;;;;;5037563;28;20045;-85
2023/01/01 08:39:36;;;;;;;29.90;4.70;;;10.40;99.90;;;;;;5038336;28;20091;-85
2023/01/01 08:42:01;;;;;;;19.97;4.60;;;10.40;99.90;;;;;;5054946;28;20335;-85
2023/01/01 08:44:27;;;;;;;24.50;4.90;;;10.40;99.90;;;;;;5054943;28;20090;-85
2023/01/01 08:46:53;;;;;;;28.17;5.27;;;10.50;99.90;;;;;;5054891;28;20045;-85
2023/01/01 08:49:18;;;;;;;32.47;5.70;;;10.40;99.90;;;;;;5055458;28;20117;-84
2023/01/01 08:51:44;;;;;;;33.17;5.60;;;10.50;99.90;;;;;;5054655;28;20049;-84
2023/01/01 08:54:10;;;;;;;27.77;5.70;;;10.40;99.90;;;;;;5054815;28;20052;-84
2023/01/01 08:56:36;;;;;;;25.60;4.57;;;10.50;99.90;;;;;;5053791;28;20481;-84
2023/01/01 08:59:02;;;;;;;25.87;5.67;;;10.50;99.90;;;;;;5037221;28;20088;-85
2023/01/01 09:01:28;;;;;;;33.93;5.20;;;10.50;99.90;;;;;;5055225;28;20401;-84
2023/01/01 09:03:54;;;;;;;32.83;4.93;;;10.50;99.90;;;;;;5053037;28;20708;-84
2023/01/01 09:06:20;;;;;;;29.37;4.70;;;10.50;99.90;;;;;;5053521;28;20493;-83
2023/01/01 09:08:46;;;;;;;27.60;5.47;;;10.50;99.90;;;;;;5053508;28;20131;-83
2023/01/01 09:11:24;;;;;;;28.47;4.93;;;10.50;99.90;;;;;;5053511;28;20085;-83
2023/01/01 09:13:50;;;;;;;28.57;5.33;;;10.50;99.90;;;;;;5053987;28;20779;-84
2023/01/01 09:16:16;;;;;;;30.03;5.07;;;10.50;99.90;;;;;;5053401;28;20295;-83
2023/01/01 09:18:41;;;;;;;22.20;4.47;;;10.50;99.90;;;;;;5054329;28;20287;-83
2023/01/01 09:21:07;;;;;;;26.13;5.30;;;10.50;99.90;;;;;;5054126;28;20091;-83
2023/01/01 09:23:33;;;;;;;29.20;5.73;;;10.50;99.90;;;;;;5054790;28;20094;-83
2023/01/01 09:26:07;;;;;;;28.00;5.23;;;10.50;99.90;;;;;;5054453;28;20280;-87
2023/01/01 09:28:33;;;;;;;30.13;5.83;;;10.50;99.90;;;;;;5053199;28;20374;-83
2023/01/01 09:31:00;;;;;;;32.13;6.40;;;10.50;99.90;;;;;;5053933;28;20295;-82
2023/01/01 09:33:27;;;;;;;30.00;5.57;;;10.50;99.90;;;;;;5054601;28;20319;-83
2023/01/01 09:35:52;;;;;;;23.43;4.53;;;10.50;99.90;;;;;;5052815;28;20376;-82
2023/01/01 09:38:18;;;;;;;30.33;5.53;;;10.50;99.90;;;;;;5054198;28;20326;-83
2023/01/01 09:41:09;;;;;;;24.70;5.00;;;10.50;99.90;;;;;;5035904;28;20049;-82
2023/01/01 09:43:53;;;;;;;35.87;5.27;;;10.50;99.90;;;;;;5035848;28;20049;-84
2023/01/01 09:46:19;;;;;;;31.17;5.50;;;10.50;99.90;;;;;;5053177;28;20284;-83
2023/01/01 09:48:55;;;;;;;26.50;4.83;;;10.50;99.90;;;;;;5053833;28;20375;-83
2023/01/01 09:51:23;;;;;;;30.10;4.47;;;10.50;99.90;;;;;;5052843;28;20055;-83
2023/01/01 09:54:22;;;;;;;31.37;6.40;;;10.50;99.90;;;;;;5053722;28;20288;-84
2023/01/01 09:56:52;;;;;;;31.03;5.07;;;10.60;99.90;;;;;;5045213;28;20295;-84
2023/01/01 09:59:18;;;;;;;27.93;4.50;;;10.60;99.90;;;;;;5057554;28;20276;-83
2023/01/01 10:01:48;;;;;;;25.90;4.83;;;10.60;99.90;;;;;;5053228;28;20790;-81
2023/01/01 10:04:32;;;;;;;27.20;4.63;;;10.60;99.90;;;;;;5073534;28;20098;-83
2023/01/01 10:07:27;;;;;;;29.30;5.37;;;10.60;99.90;;;;;;5074385;28;20362;-82
2023/01/01 10:10:23;;;;;;;29.80;4.85;;;10.60;99.90;;;;;;5073577;28;20734;-83
2023/01/01 10:13:01;;;;;;;24.05;5.13;;;10.70;99.90;;;;;;5056678;28;20114;-83
2023/01/01 10:15:33;;;;;;;28.50;5.77;;;10.70;99.90;;;;;;5074322;28;20127;-82
2023/01/01 10:18:03;;;;;;;30.97;4.93;;;10.80;99.90;;;;;;5074087;28;20271;-83
2023/01/01 10:20:47;;;;;;;30.77;5.70;;;10.80;99.90;;;;;;5074123;28;20611;-82
2023/01/01 10:23:21;;;;;;;25.50;4.37;;;10.80;99.90;;;;;;5041494;28;20306;-93
2023/01/01 10:25:47;;;;;;;25.23;4.87;;;10.80;99.90;;;;;;5055808;28;20286;-82
2023/01/01 10:28:26;;;;;;;22.83;4.60;;;10.80;99.90;;;;;;5073295;28;20325;-82
2023/01/01 10:30:59;;;;;;;18.43;4.50;;;10.70;99.90;;;;;;5074249;28;20123;-83
2023/01/01 10:33:25;;;;;;;22.03;4.63;;;10.70;99.90;;;;;;5073403;28;20310;-82
2023/01/01 10:35:57;;;;;;;27.90;4.77;;;10.60;99.90;;;;;;5073237;28;20660;-83
2023/01/01 10:38:24;;;;;;;29.37;4.23;;;10.60;99.90;;;;;;5073192;28;20131;-82
2023/01/01 10:41:01;;;;;;;22.43;4.60;;;10.60;99.90;;;;;;5072838;28;20842;-83
2023/01/01 10:43:27;;;;;;;22.97;5.00;;;10.60;99.90;;;;;;5055857;28;20302;-79
2023/01/01 10:45:54;;;;;;;26.37;5.27;;;10.60;99.90;;;;;;5073154;28;20294;-80
2023/01/01 10:48:22;;;;;;;22.53;4.67;;;10.60;99.90;;;;;;5055538;28;20048;-82
2023/01/01 10:50:58;;;;;;;18.87;4.10;;;10.50;99.90;;;;;;5073109;28;20673;-81
2023/01/01 10:53:36;;;;;;;27.30;5.20;;;10.50;99.90;;;;;;5075754;28;20283;-82
2023/01/01 10:56:12;;;;;;;31.67;5.63;;;10.50;99.90;;;;;;5077141;28;20285;-81
2023/01/01 10:58:42;;;;;;;21.80;4.00;;;10.60;99.90;;;;;;5077078;28;20290;-82
2023/01/01 11:01:17;;;;;;;25.30;4.20;;;10.60;99.90;;;;;;5076972;28;20287;-81
2023/01/01 11:03:58;;;;;;;20.70;4.18;;;10.60;99.90;;;;;;5059005;28;20794;-81
2023/01/01 11:06:38;;;;;;;21.93;3.90;;;10.70;99.90;;;;;;5077492;28;20070;-90
2023/01/01 11:09:28;;;;;;;19.73;3.80;;;10.70;99.90;;;;;;5077314;28;20289;-86
2023/01/01 11:12:19;;;;;;;21.43;3.97;;;10.70;99.90;;;;;;5076769;28;20285;-82
2023/01/01 11:14:56;;;;;;;27.00;4.10;;;10.70;99.90;;;;;;5062924;28;20313;-82
2023/01/01 11:17:34;;;;;;;17.73;3.97;;;10.80;99.90;;;;;;5042257;28;20301;-83
2023/01/01 11:20:01;;;;;;;23.10;5.20;;;10.80;99.90;;;;;;5076569;28;20291;-84
2023/01/01 11:22:44;;;;;;;23.57;3.90;;;10.80;99.90;;;;;;5076406;28;20345;-83
2023/01/01 11:25:22;;;;;;;22.93;4.40;;;10.80;99.90;;;;;;5077283;28;20279;-80
2023/01/01 11:27:48;;;;;;;21.70;3.80;;;10.80;99.90;;;;;;5076482;28;20278;-86
2023/01/01 11:30:20;;;;;;;19.83;3.90;;;10.80;99.90;;;;;;5058485;28;20396;-81
2023/01/01 11:32:48;;;;;;;19.93;3.63;;;10.80;99.90;;;;;;5076323;28;20287;-85
2023/01/01 11:35:22;;;;;;;23.20;4.17;;;10.80;99.90;;;;;;5058371;28;20798;-83
2023/01/01 11:37:49;;;;;;;22.23;3.90;;;10.80;99.90;;;;;;5076247;28;20290;-83
2023/01/01 11:40:37;;;;;;;22.57;3.67;;;10.80;99.90;;;;;;5076391;28;20817;-84
2023/01/01 11:43:05;;;;;;;19.30;4.10;;;10.70;99.90;;;;;;5076087;28;20385;-83
2023/01/01 11:45:40;;;;;;;22.57;3.97;;;10.80;99.90;;;;;;5058274;28;20322;-84
2023/01/01 11:48:29;;;;;;;20.42;3.53;;;10.80;99.90;;;;;;5076976;28;20275;-84
2023/01/01 11:50:59;;;;;;;23.73;4.10;;;10.80;99.90;;;;;;5076121;28;20131;-81
2023/01/01 11:53:40;;;;;;;16.87;3.93;;;10.80;99.90;;;;;;5076230;28;20413;-81
2023/01/01 11:56:14;;;;;;;25.77;4.53;;;10.80;99.90;;;;;;5076641;28;20294;-87
2023/01/01 11:58:51;;;;;;;30.60;4.80;;;10.80;99.90;;;;;;5057925;28;20298;-88
2023/01/01 12:01:31;;;;;;;22.77;4.80;;;10.90;99.90;;;;;;5076002;28;20820;-81
2023/01/01 12:04:26;;;;;;;21.57;3.70;;;10.90;99.90;;;;;;5075230;28;20799;-81
2023/01/01 12:06:58;;;;;;;15.73;3.00;;;10.90;99.90;;;;;;5037082;28;20291;-82
2023/01/01 12:09:51;;;;;;;17.80;3.50;;;11.00;99.90;;;;;;5058089;28;20900;-82
2023/01/01 12:12:38;;;;;;;19.53;3.37;;;11.00;99.90;;;;;;5058666;28;20352;-81
2023/01/01 12:15:40;;;;;;;26.97;4.50;;;11.10;99.90;;;;;;5057833;28;20770;-80
2023/01/01 12:18:11;;;;;;;20.27;4.10;;;11.10;99.90;;;;;;5056956;28;20287;-81
2023/01/01 12:20:44;;;;;;;23.00;3.90;;;11.10;99.90;;;;;;5076007;28;20297;-83
2023/01/01 12:23:12;;;;;;;21.50;4.43;;;11.10;99.90;;;;;;5057709;28;20778;-83
2023/01/01 12:25:45;;;;;;;22.37;5.13;;;11.10;99.90;;;;;;5075324;28;20287;-87
2023/01/01 12:28:28;;;;;;;21.87;4.20;;;11.20;99.90;;;;;;5058037;28;20773;-88
2023/01/01 12:31:16;;;;;;;17.77;3.57;;;11.20;99.90;;;;;;5076128;28;20286;-89
2023/01/01 12:34:08;;;;;;;20.63;4.30;;;11.20;99.90;;;;;;5057748;28;20755;-87
2023/01/01 12:36:55;;;;;;;18.33;4.20;;;11.20;99.90;;;;;;5058112;28;20365;-88
2023/01/01 12:39:52;;;;;;;20.20;4.70;;;11.20;99.90;;;;;;5075188;28;20283;-87
2023/01/01 12:42:41;;;;;;;20.30;3.63;;;11.20;99.90;;;;;;5057115;28;20759;-89
2023/01/01 12:45:25;;;;;;;17.07;4.07;;;11.20;99.90;;;;;;5057622;28;20381;-82
2023/01/01 12:48:11;;;;;;;25.20;3.90;;;11.10;99.90;;;;;;5075840;28;20369;-83
2023/01/01 12:50:57;;;;;;;22.70;4.40;;;11.10;99.90;;;;;;5057506;28;20378;-80
2023/01/01 12:53:42;;;;;;;25.33;5.07;;;11.10;99.90;;;;;;5057511;28;20291;-80
2023/01/01 12:56:48;;;;;;;24.38;4.78;;;11.10;99.90;;;;;;5074744;28;20291;-82